createdAt,value
2023-05-09T00:00:51.380Z,7.20
2023-05-09T00:03:21.030Z,7.20
2023-05-09T00:05:50.968Z,7.33
2023-05-09T00:08:17.808Z,7.80
2023-05-09T00:10:44.665Z,7.97
2023-05-09T00:13:12.072Z,7.23
2023-05-09T00:15:41.176Z,7.10
2023-05-09T00:18:12.750Z,6.47
2023-05-09T00:20:40.856Z,7.60
2023-05-09T00:23:14.945Z,7.37
2023-05-09T00:25:44.368Z,8.03
2023-05-09T00:28:13.297Z,7.27
2023-05-09T00:30:40.116Z,7.00
2023-05-09T00:33:09.062Z,7.30
2023-05-09T00:35:38.549Z,7.27
2023-05-09T00:38:05.645Z,7.93
2023-05-09T00:40:32.528Z,7.30
2023-05-09T00:43:00.047Z,6.97
2023-05-09T00:45:29.614Z,7.73
2023-05-09T00:47:57.322Z,7.23
2023-05-09T00:50:29.504Z,7.87
2023-05-09T00:53:00.987Z,8.47
2023-05-09T00:55:30.156Z,7.93
2023-05-09T00:57:57.012Z,8.03
2023-05-09T01:00:26.250Z,7.63
2023-05-09T01:02:59.031Z,7.40
2023-05-09T01:05:55.602Z,8.27
2023-05-09T01:09:00.411Z,8.27
2023-05-09T01:11:44.008Z,8.70
2023-05-09T01:14:35.762Z,8.13
2023-05-09T01:17:25.356Z,8.57
2023-05-09T01:20:30.112Z,7.87
2023-05-09T01:23:36.430Z,8.77
2023-05-09T01:26:36.651Z,8.10
2023-05-09T01:29:25.005Z,8.23
2023-05-09T01:31:58.418Z,9.43
2023-05-09T01:34:29.708Z,7.73
2023-05-09T01:37:03.443Z,7.53
2023-05-09T01:39:34.801Z,7.80
2023-05-09T01:42:07.501Z,9.43
2023-05-09T01:44:42.447Z,7.43
2023-05-09T01:47:16.287Z,9.43
2023-05-09T01:49:50.719Z,8.60
2023-05-09T01:52:20.150Z,8.57
2023-05-09T01:54:51.384Z,8.47
2023-05-09T01:57:22.349Z,8.60
2023-05-09T01:59:53.157Z,9.00
2023-05-09T02:02:20.985Z,8.40
2023-05-09T02:04:54.554Z,8.00
2023-05-09T02:07:24.385Z,8.27
2023-05-09T02:10:00.220Z,8.47
2023-05-09T02:12:29.621Z,8.40
2023-05-09T02:14:56.451Z,8.23
2023-05-09T02:17:25.869Z,8.93
2023-05-09T02:19:54.793Z,8.20
2023-05-09T02:22:24.253Z,7.73
2023-05-09T02:24:54.220Z,8.17
2023-05-09T02:27:29.716Z,7.83
2023-05-09T02:30:04.024Z,7.93
2023-05-09T02:32:36.778Z,8.40
2023-05-09T02:35:11.450Z,7.93
2023-05-09T02:37:40.773Z,7.70
2023-05-09T02:40:09.690Z,8.57
2023-05-09T02:42:41.442Z,9.03
2023-05-09T02:45:10.484Z,7.87
2023-05-09T02:47:45.367Z,8.73
2023-05-09T02:50:12.769Z,8.20
2023-05-09T02:52:41.691Z,8.50
2023-05-09T02:55:11.645Z,8.23
2023-05-09T02:57:40.669Z,8.37
2023-05-09T03:00:14.363Z,8.30
2023-05-09T03:02:47.073Z,8.00
2023-05-09T03:05:17.594Z,8.77
2023-05-09T03:07:47.408Z,8.50
2023-05-09T03:10:16.765Z,7.77
2023-05-09T03:12:48.330Z,8.83
2023-05-09T03:15:17.247Z,8.60
2023-05-09T03:17:51.622Z,8.93
2023-05-09T03:20:20.898Z,8.90
2023-05-09T03:22:49.836Z,8.93
2023-05-09T03:25:16.923Z,8.93
2023-05-09T03:27:44.603Z,8.83
2023-05-09T03:30:17.184Z,8.30
2023-05-09T03:32:50.467Z,8.73
2023-05-09T03:35:20.048Z,8.33
2023-05-09T03:37:52.468Z,8.80
2023-05-09T03:40:23.933Z,8.23
2023-05-09T03:43:03.246Z,8.10
2023-05-09T03:45:35.788Z,8.97
2023-05-09T03:48:08.460Z,8.03
2023-05-09T03:50:40.913Z,8.27
2023-05-09T03:53:11.075Z,7.83
2023-05-09T03:55:41.867Z,8.70
2023-05-09T03:58:12.436Z,8.17
2023-05-09T04:00:46.827Z,8.00
2023-05-09T04:03:22.801Z,8.50
2023-05-09T04:05:51.623Z,7.80
2023-05-09T04:08:30.634Z,8.50
2023-05-09T04:11:03.309Z,8.87
2023-05-09T04:13:36.338Z,7.83
2023-05-09T04:16:19.890Z,7.93
2023-05-09T04:18:46.825Z,7.80
2023-05-09T04:21:19.081Z,9.00
2023-05-09T04:23:51.619Z,8.90
2023-05-09T04:26:24.619Z,8.50
2023-05-09T04:28:55.323Z,7.97
2023-05-09T04:31:27.559Z,8.53
2023-05-09T04:33:58.198Z,8.37
2023-05-09T04:36:28.874Z,8.17
2023-05-09T04:38:59.192Z,8.13
2023-05-09T04:41:27.675Z,8.37
2023-05-09T04:43:54.553Z,7.77
2023-05-09T04:46:32.425Z,8.70
2023-05-09T04:49:03.851Z,8.27
2023-05-09T04:51:30.814Z,8.80
2023-05-09T04:54:00.423Z,8.20
2023-05-09T04:56:34.588Z,8.83
2023-05-09T04:59:03.911Z,8.83
2023-05-09T05:01:30.936Z,8.67
2023-05-09T05:04:03.166Z,8.83
2023-05-09T05:06:32.138Z,8.50
2023-05-09T05:09:06.148Z,9.50
2023-05-09T05:11:35.688Z,9.67
2023-05-09T05:14:06.268Z,9.67
2023-05-09T05:16:34.011Z,11.20
2023-05-09T05:19:03.554Z,10.53
2023-05-09T05:21:34.627Z,9.40
2023-05-09T05:24:06.017Z,8.73
2023-05-09T05:26:37.823Z,8.67
2023-05-09T05:29:07.131Z,8.30
2023-05-09T05:31:39.004Z,7.30
2023-05-09T05:34:08.823Z,10.90
2023-05-09T05:36:38.429Z,10.50
2023-05-09T05:39:09.939Z,8.73
2023-05-09T05:41:41.878Z,9.57
2023-05-09T05:44:08.787Z,9.47
2023-05-09T05:46:38.362Z,9.00
2023-05-09T05:49:10.729Z,9.13
2023-05-09T05:51:38.358Z,8.77
2023-05-09T05:54:06.554Z,9.73
2023-05-09T05:56:35.421Z,8.60
2023-05-09T05:59:06.914Z,8.73
2023-05-09T06:01:36.065Z,9.53
2023-05-09T06:04:03.098Z,8.93
2023-05-09T06:06:34.590Z,9.07
2023-05-09T06:09:01.416Z,9.20
2023-05-09T06:11:33.239Z,10.33
2023-05-09T06:14:01.879Z,8.97
2023-05-09T06:16:29.437Z,8.60
2023-05-09T06:19:01.039Z,9.17
2023-05-09T06:21:30.243Z,9.43
2023-05-09T06:24:11.773Z,8.77
2023-05-09T06:26:44.575Z,8.50
2023-05-09T06:29:16.451Z,8.63
2023-05-09T06:31:48.387Z,9.20
2023-05-09T06:34:19.822Z,8.27
2023-05-09T06:36:46.720Z,8.67
2023-05-09T06:39:18.620Z,8.23
2023-05-09T06:41:45.733Z,8.93
2023-05-09T06:44:26.760Z,7.83
2023-05-09T06:46:53.619Z,7.73
2023-05-09T06:49:22.528Z,8.03
2023-05-09T06:51:51.923Z,8.77
2023-05-09T06:54:21.086Z,8.43
2023-05-09T06:56:50.297Z,8.17
2023-05-09T06:59:19.675Z,8.37
2023-05-09T07:01:48.728Z,8.40
2023-05-09T07:04:15.627Z,8.00
2023-05-09T07:06:42.584Z,8.07
2023-05-09T07:09:09.960Z,8.07
2023-05-09T07:11:39.757Z,8.27
2023-05-09T07:14:08.985Z,8.87
2023-05-09T07:16:37.606Z,8.30
2023-05-09T07:19:07.366Z,8.10
2023-05-09T07:21:36.517Z,7.90
2023-05-09T07:24:03.599Z,7.67
2023-05-09T07:26:33.173Z,8.10
2023-05-09T07:29:02.664Z,7.50
2023-05-09T07:31:32.793Z,7.57
2023-05-09T07:34:01.039Z,7.27
2023-05-09T07:36:30.235Z,7.20
2023-05-09T07:38:59.163Z,7.37
2023-05-09T07:41:27.491Z,7.87
2023-05-09T07:43:58.324Z,7.60
2023-05-09T07:46:30.026Z,6.93
2023-05-09T07:48:56.908Z,7.87
2023-05-09T07:51:29.695Z,6.77
2023-05-09T07:54:02.153Z,8.00
2023-05-09T07:56:29.823Z,6.70
2023-05-09T07:58:59.186Z,6.80
2023-05-09T08:01:26.636Z,7.33
2023-05-09T08:03:53.625Z,7.27
2023-05-09T08:06:20.824Z,6.67
2023-05-09T08:08:52.263Z,6.67
2023-05-09T08:11:23.020Z,6.83
2023-05-09T08:13:57.157Z,5.67
2023-05-09T08:16:25.604Z,6.67
2023-05-09T08:18:54.686Z,6.10
2023-05-09T08:21:23.898Z,6.23
2023-05-09T08:23:50.830Z,6.73
2023-05-09T08:26:19.964Z,6.30
2023-05-09T08:28:50.928Z,7.17
2023-05-09T08:31:20.666Z,6.53
2023-05-09T08:33:49.595Z,5.90
2023-05-09T08:36:16.604Z,6.30
2023-05-09T08:38:43.381Z,6.33
2023-05-09T08:41:13.001Z,6.20
2023-05-09T08:43:47.519Z,6.60
2023-05-09T08:46:36.509Z,5.40
2023-05-09T08:49:08.627Z,5.70
2023-05-09T08:51:36.698Z,5.73
2023-05-09T08:54:06.862Z,6.63
2023-05-09T08:56:35.809Z,6.20
2023-05-09T08:59:06.982Z,6.60
2023-05-09T09:01:40.232Z,6.80
2023-05-09T09:04:08.887Z,5.97
2023-05-09T09:06:39.210Z,7.07
2023-05-09T09:09:11.140Z,6.50
2023-05-09T09:11:40.644Z,6.40
2023-05-09T09:14:23.815Z,6.60
2023-05-09T09:16:58.253Z,6.93
2023-05-09T09:19:31.704Z,6.50
2023-05-09T09:22:07.631Z,6.97
2023-05-09T09:24:39.458Z,6.10
2023-05-09T09:27:07.603Z,6.10
2023-05-09T09:29:38.601Z,6.17
2023-05-09T09:32:08.256Z,6.30
2023-05-09T09:34:35.165Z,6.93
2023-05-09T09:37:02.088Z,6.47
2023-05-09T09:39:28.995Z,5.83
2023-05-09T09:42:13.228Z,6.37
2023-05-09T09:44:40.572Z,7.03
2023-05-09T09:47:15.423Z,5.73
2023-05-09T09:49:51.074Z,5.43
2023-05-09T09:52:26.946Z,5.17
2023-05-09T09:54:56.825Z,5.57
2023-05-09T09:57:43.792Z,6.33
2023-05-09T10:00:17.977Z,6.20
2023-05-09T10:02:55.674Z,6.07
2023-05-09T10:05:34.456Z,5.53
2023-05-09T10:08:08.762Z,6.50
2023-05-09T10:10:37.479Z,6.87
2023-05-09T10:13:11.996Z,6.47
2023-05-09T10:15:53.544Z,6.50
2023-05-09T10:18:30.704Z,5.60
2023-05-09T10:21:04.036Z,6.10
2023-05-09T10:23:34.392Z,5.63
2023-05-09T10:26:27.736Z,5.90
2023-05-09T10:29:06.349Z,6.00
2023-05-09T10:31:40.641Z,6.30
2023-05-09T10:34:14.399Z,5.50
2023-05-09T10:36:47.103Z,5.57
2023-05-09T10:39:18.009Z,6.00
2023-05-09T10:41:49.868Z,5.83
2023-05-09T10:44:24.171Z,5.53
2023-05-09T10:46:51.953Z,5.83
2023-05-09T10:49:21.756Z,5.80
2023-05-09T10:51:51.654Z,5.13
2023-05-09T10:54:30.693Z,5.77
2023-05-09T10:57:00.862Z,6.03
2023-05-09T10:59:42.390Z,5.53
2023-05-09T11:02:24.453Z,5.43
2023-05-09T11:05:19.497Z,5.60
2023-05-09T11:07:47.327Z,5.87
2023-05-09T11:10:17.984Z,5.77
2023-05-09T11:13:03.664Z,5.73
2023-05-09T11:15:33.068Z,5.93
2023-05-09T11:18:14.068Z,6.43
2023-05-09T11:20:50.461Z,5.93
2023-05-09T11:23:29.721Z,5.73
2023-05-09T11:26:09.562Z,5.00
2023-05-09T11:28:38.458Z,5.43
2023-05-09T11:31:19.180Z,6.00
2023-05-09T11:34:06.239Z,6.30
2023-05-09T11:36:34.057Z,5.90
2023-05-09T11:39:07.985Z,4.93
2023-05-09T11:41:48.755Z,5.73
2023-05-09T11:44:20.138Z,5.70
2023-05-09T11:46:53.761Z,5.50
2023-05-09T11:49:25.416Z,5.40
2023-05-09T11:51:54.944Z,5.37
2023-05-09T11:54:26.266Z,5.53
2023-05-09T11:57:00.909Z,5.97
2023-05-09T11:59:30.675Z,5.27
2023-05-09T12:02:01.857Z,6.03
2023-05-09T12:04:30.947Z,5.53
2023-05-09T12:07:01.814Z,5.30
2023-05-09T12:09:38.169Z,6.57
2023-05-09T12:12:20.785Z,5.03
2023-05-09T12:14:50.032Z,5.00
2023-05-09T12:17:17.002Z,6.17
2023-05-09T12:19:44.672Z,5.30
2023-05-09T12:22:13.588Z,5.03
2023-05-09T12:24:43.275Z,5.47
2023-05-09T12:27:12.946Z,5.47
2023-05-09T12:29:42.204Z,5.67
2023-05-09T12:32:15.313Z,5.13
2023-05-09T12:34:48.435Z,5.57
2023-05-09T12:37:19.803Z,5.30
2023-05-09T12:40:15.235Z,4.97
2023-05-09T12:42:46.449Z,5.20
2023-05-09T12:45:14.685Z,4.87
2023-05-09T12:47:46.695Z,4.87
2023-05-09T12:50:15.833Z,5.63
2023-05-09T12:53:02.835Z,4.87
2023-05-09T12:55:33.377Z,5.37
2023-05-09T12:58:03.369Z,5.10
2023-05-09T13:00:47.259Z,6.13
2023-05-09T13:03:27.225Z,5.43
2023-05-09T13:05:59.537Z,4.87
2023-05-09T13:08:32.679Z,5.07
2023-05-09T13:11:15.025Z,5.17
2023-05-09T13:13:45.920Z,5.60
2023-05-09T13:16:17.531Z,5.10
2023-05-09T13:18:47.375Z,5.53
2023-05-09T13:21:16.416Z,5.43
2023-05-09T13:23:45.987Z,4.80
2023-05-09T13:26:12.985Z,5.70
2023-05-09T13:28:42.138Z,5.13
2023-05-09T13:31:09.822Z,4.50
2023-05-09T13:33:36.795Z,4.83
2023-05-09T13:36:07.092Z,4.70
2023-05-09T13:38:40.641Z,5.63
2023-05-09T13:41:08.024Z,5.80
2023-05-09T13:43:42.491Z,5.63
2023-05-09T13:46:09.458Z,5.43
2023-05-09T13:48:41.774Z,5.33
2023-05-09T13:51:14.198Z,5.40
2023-05-09T13:53:43.612Z,5.40
2023-05-09T13:56:13.022Z,4.87
2023-05-09T13:58:39.925Z,6.00
2023-05-09T14:01:11.392Z,5.33
2023-05-09T14:03:38.540Z,5.77
2023-05-09T14:06:05.802Z,5.90
2023-05-09T14:08:33.335Z,5.53
2023-05-09T14:11:00.160Z,5.70
2023-05-09T14:13:31.833Z,5.13
2023-05-09T14:16:05.212Z,6.00
2023-05-09T14:18:35.182Z,5.33
2023-05-09T14:21:07.008Z,5.00
2023-05-09T14:23:36.262Z,4.67
2023-05-09T14:26:05.282Z,5.17
2023-05-09T14:28:37.359Z,4.23
2023-05-09T14:31:08.823Z,4.90
2023-05-09T14:33:36.104Z,4.47
2023-05-09T14:36:04.092Z,4.73
2023-05-09T14:38:33.379Z,5.50
2023-05-09T14:41:02.826Z,5.77
2023-05-09T14:43:32.828Z,5.63
2023-05-09T14:46:04.539Z,5.77
2023-05-09T14:48:33.910Z,5.77
2023-05-09T14:51:05.823Z,4.70
2023-05-09T14:53:41.793Z,5.90
2023-05-09T14:56:11.322Z,5.53
2023-05-09T14:58:38.409Z,5.70
2023-05-09T15:01:05.670Z,4.90
2023-05-09T15:03:39.108Z,5.70
2023-05-09T15:06:10.752Z,5.53
2023-05-09T15:08:39.877Z,6.00
2023-05-09T15:11:13.999Z,5.17
2023-05-09T15:13:43.151Z,5.80
2023-05-09T15:16:12.012Z,5.70
2023-05-09T15:18:45.491Z,5.53
2023-05-09T15:21:19.235Z,5.53
2023-05-09T15:23:46.596Z,6.03
2023-05-09T15:26:16.939Z,5.33
2023-05-09T15:28:45.320Z,5.43
2023-05-09T15:31:23.428Z,4.90
2023-05-09T15:33:52.344Z,5.03
2023-05-09T15:36:21.332Z,5.23
2023-05-09T15:38:49.667Z,5.33
2023-05-09T15:41:17.078Z,6.30
2023-05-09T15:43:44.131Z,6.47
2023-05-09T15:46:11.108Z,5.93
2023-05-09T15:48:40.109Z,5.10
2023-05-09T15:51:09.550Z,5.30
2023-05-09T15:53:36.459Z,6.00
2023-05-09T15:56:04.534Z,5.97
2023-05-09T15:58:32.075Z,6.07
2023-05-09T16:01:08.168Z,6.23
2023-05-09T16:03:37.477Z,5.37
2023-05-09T16:06:07.296Z,5.77
2023-05-09T16:08:36.528Z,6.47
2023-05-09T16:11:08.022Z,5.90
2023-05-09T16:13:44.357Z,6.50
2023-05-09T16:16:11.326Z,6.27
2023-05-09T16:18:43.766Z,6.30
2023-05-09T16:21:15.251Z,6.73
2023-05-09T16:23:42.084Z,7.07
2023-05-09T16:26:11.710Z,5.97
2023-05-09T16:28:40.096Z,6.90
2023-05-09T16:31:12.234Z,6.60
2023-05-09T16:33:41.534Z,7.57
2023-05-09T16:36:08.564Z,7.40
2023-05-09T16:38:35.398Z,6.90
2023-05-09T16:41:06.810Z,7.13
2023-05-09T16:43:38.175Z,7.03
2023-05-09T16:46:05.033Z,7.30
2023-05-09T16:48:34.140Z,6.27
2023-05-09T16:51:01.010Z,7.13
2023-05-09T16:53:30.288Z,7.00
2023-05-09T16:55:59.822Z,6.70
2023-05-09T16:58:27.512Z,6.80
2023-05-09T17:00:55.257Z,6.60
2023-05-09T17:03:24.512Z,6.70
2023-05-09T17:05:53.393Z,6.57
2023-05-09T17:08:22.638Z,7.13
2023-05-09T17:10:52.066Z,6.13
2023-05-09T17:13:19.378Z,6.73
2023-05-09T17:15:48.378Z,6.87
2023-05-09T17:18:25.404Z,4.97
2023-05-09T17:20:58.861Z,6.40
2023-05-09T17:23:30.445Z,6.30
2023-05-09T17:25:59.896Z,6.70
2023-05-09T17:28:26.867Z,6.23
2023-05-09T17:30:59.132Z,6.27
2023-05-09T17:33:26.825Z,6.57
2023-05-09T17:35:57.419Z,5.53
2023-05-09T17:38:24.536Z,6.37
2023-05-09T17:40:58.324Z,7.60
2023-05-09T17:43:29.872Z,8.30
2023-05-09T17:45:59.205Z,9.30
2023-05-09T17:48:29.163Z,8.23
2023-05-09T17:50:56.228Z,7.97
2023-05-09T17:53:30.551Z,8.43
2023-05-09T17:56:01.883Z,6.53
2023-05-09T17:58:33.590Z,7.63
2023-05-09T18:01:02.653Z,7.27
2023-05-09T18:03:32.498Z,6.70
2023-05-09T18:06:06.758Z,6.70
2023-05-09T18:08:41.319Z,7.17
2023-05-09T18:11:12.995Z,8.23
2023-05-09T18:13:39.839Z,7.83
2023-05-09T18:16:06.930Z,6.97
2023-05-09T18:18:36.480Z,7.50
2023-05-09T18:21:07.847Z,8.20
2023-05-09T18:23:37.335Z,7.57
2023-05-09T18:26:06.402Z,7.03
2023-05-09T18:28:43.281Z,7.13
2023-05-09T18:31:11.623Z,6.43
2023-05-09T18:33:39.147Z,6.80
2023-05-09T18:36:09.398Z,7.03
2023-05-09T18:38:41.481Z,5.80
2023-05-09T18:41:13.217Z,5.67
2023-05-09T18:43:45.956Z,4.87
2023-05-09T18:46:19.831Z,4.53
2023-05-09T18:48:52.061Z,5.27
2023-05-09T18:51:24.041Z,4.30
2023-05-09T18:53:55.519Z,5.63
2023-05-09T18:56:25.404Z,4.97
2023-05-09T18:58:54.836Z,5.10
2023-05-09T19:01:21.780Z,5.53
2023-05-09T19:03:54.096Z,4.70
2023-05-09T19:06:21.790Z,5.27
2023-05-09T19:08:51.955Z,3.70
2023-05-09T19:11:22.110Z,4.37
2023-05-09T19:13:52.821Z,4.20
2023-05-09T19:16:21.603Z,3.53
2023-05-09T19:18:53.146Z,4.10
2023-05-09T19:21:20.039Z,4.27
2023-05-09T19:23:50.016Z,4.10
2023-05-09T19:26:19.909Z,3.63
2023-05-09T19:28:49.116Z,3.77
2023-05-09T19:31:20.748Z,3.10
2023-05-09T19:33:47.878Z,3.30
2023-05-09T19:36:14.701Z,3.27
2023-05-09T19:38:46.528Z,3.00
2023-05-09T19:41:15.692Z,2.70
2023-05-09T19:43:42.578Z,3.07
2023-05-09T19:46:09.696Z,3.57
2023-05-09T19:48:36.529Z,3.37
2023-05-09T19:51:04.256Z,3.90
2023-05-09T19:53:33.299Z,3.40
2023-05-09T19:56:05.371Z,2.93
2023-05-09T19:58:32.141Z,3.37
2023-05-09T20:00:59.088Z,3.97
2023-05-09T20:03:30.644Z,2.77
2023-05-09T20:06:02.639Z,2.90
2023-05-09T20:08:29.951Z,3.20
2023-05-09T20:11:00.009Z,2.57
2023-05-09T20:13:29.621Z,2.57
2023-05-09T20:15:59.180Z,3.00
2023-05-09T20:18:29.012Z,2.90
2023-05-09T20:20:57.930Z,2.83
2023-05-09T20:23:24.733Z,3.10
2023-05-09T20:25:56.731Z,2.70
2023-05-09T20:28:25.913Z,2.87
2023-05-09T20:30:52.740Z,2.60
2023-05-09T20:33:19.557Z,3.20
2023-05-09T20:35:50.739Z,2.87
2023-05-09T20:38:19.689Z,2.93
2023-05-09T20:40:48.724Z,2.93
2023-05-09T20:43:20.452Z,3.27
2023-05-09T20:45:54.431Z,2.43
2023-05-09T20:48:23.375Z,2.80
2023-05-09T20:50:50.509Z,2.83
2023-05-09T20:53:20.053Z,2.70
2023-05-09T20:55:50.474Z,3.00
2023-05-09T20:58:19.897Z,3.10
2023-05-09T21:00:49.248Z,3.07
2023-05-09T21:03:17.142Z,3.67
2023-05-09T21:05:48.911Z,3.50
2023-05-09T21:08:16.258Z,3.37
2023-05-09T21:10:43.096Z,3.77
2023-05-09T21:13:12.443Z,5.57
2023-05-09T21:15:39.900Z,4.13
2023-05-09T21:18:06.768Z,3.07
2023-05-09T21:20:36.004Z,3.00
2023-05-09T21:23:07.430Z,2.10
2023-05-09T21:25:38.818Z,2.23
2023-05-09T21:28:08.585Z,2.00
2023-05-09T21:30:35.546Z,2.10
2023-05-09T21:33:03.813Z,2.10
2023-05-09T21:35:37.680Z,2.20
2023-05-09T21:38:08.969Z,2.13
2023-05-09T21:40:41.138Z,2.57
2023-05-09T21:43:08.014Z,2.20
2023-05-09T21:45:34.868Z,2.27
2023-05-09T21:48:01.827Z,2.70
2023-05-09T21:50:33.642Z,2.53
2023-05-09T21:53:03.336Z,2.20
2023-05-09T21:55:34.790Z,3.67
2023-05-09T21:58:01.653Z,2.87
2023-05-09T22:00:28.497Z,3.17
2023-05-09T22:02:55.477Z,2.80
2023-05-09T22:05:28.157Z,2.50
2023-05-09T22:07:59.621Z,2.60
2023-05-09T22:10:28.769Z,2.20
2023-05-09T22:13:00.639Z,2.20
2023-05-09T22:15:33.193Z,2.60
2023-05-09T22:18:00.237Z,2.47
2023-05-09T22:20:29.272Z,2.37
2023-05-09T22:23:00.755Z,2.60
2023-05-09T22:25:27.631Z,2.57
2023-05-09T22:27:58.166Z,2.47
2023-05-09T22:30:28.289Z,2.40
2023-05-09T22:33:00.924Z,2.43
2023-05-09T22:35:27.842Z,2.63
2023-05-09T22:37:56.752Z,2.47
2023-05-09T22:40:26.608Z,2.27
2023-05-09T22:42:57.998Z,2.50
2023-05-09T22:45:26.869Z,2.20
2023-05-09T22:47:56.019Z,2.57
2023-05-09T22:50:25.470Z,2.33
2023-05-09T22:52:52.385Z,2.20
2023-05-09T22:55:23.980Z,2.47
2023-05-09T22:57:53.317Z,2.40
2023-05-09T23:00:20.261Z,2.10
2023-05-09T23:02:49.475Z,2.70
2023-05-09T23:05:21.916Z,2.67
2023-05-09T23:07:48.777Z,2.23
2023-05-09T23:10:16.142Z,2.37
2023-05-09T23:12:45.288Z,2.57
2023-05-09T23:15:16.721Z,2.40
2023-05-09T23:17:43.655Z,2.60
2023-05-09T23:20:14.321Z,2.40
2023-05-09T23:22:48.988Z,2.30
2023-05-09T23:25:20.317Z,2.20
2023-05-09T23:27:47.236Z,2.30
2023-05-09T23:30:18.973Z,2.40
2023-05-09T23:32:50.875Z,2.47
2023-05-09T23:35:21.031Z,2.43
2023-05-09T23:37:52.355Z,2.70
2023-05-09T23:40:19.335Z,2.43
2023-05-09T23:42:51.277Z,2.23
2023-05-09T23:45:25.102Z,2.63
2023-05-09T23:47:54.215Z,2.20
2023-05-09T23:50:21.470Z,2.23
2023-05-09T23:52:51.167Z,1.63
2023-05-09T23:55:20.249Z,1.30
2023-05-09T23:57:51.583Z,0.90
